sensor_id;sensor_type;location;lat;lon;timestamp;temperature;humidity
73509;SHT30;61750;55.036;73.312;2023-04-25T00:00:32;3.35;46.86
73509;SHT30;61750;55.036;73.312;2023-04-25T00:03:08;3.42;46.13
73509;SHT30;61750;55.036;73.312;2023-04-25T00:05:34;3.47;46.13
73509;SHT30;61750;55.036;73.312;2023-04-25T00:08:03;3.53;45.94
73509;SHT30;61750;55.036;73.312;2023-04-25T00:10:33;3.60;46.29
73509;SHT30;61750;55.036;73.312;2023-04-25T00:13:04;3.66;46.04
73509;SHT30;61750;55.036;73.312;2023-04-25T00:15:33;3.71;45.73
73509;SHT30;61750;55.036;73.312;2023-04-25T00:18:01;3.77;46.13
73509;SHT30;61750;55.036;73.312;2023-04-25T00:20:33;3.83;45.12
73509;SHT30;61750;55.036;73.312;2023-04-25T00:23:11;3.84;44.89
73509;SHT30;61750;55.036;73.312;2023-04-25T00:25:37;3.91;45.21
73509;SHT30;61750;55.036;73.312;2023-04-25T00:28:05;3.91;45.14
73509;SHT30;61750;55.036;73.312;2023-04-25T00:30:31;3.98;45.59
73509;SHT30;61750;55.036;73.312;2023-04-25T00:33:00;3.98;45.51
73509;SHT30;61750;55.036;73.312;2023-04-25T00:35:33;3.97;45.46
73509;SHT30;61750;55.036;73.312;2023-04-25T00:38:04;4.00;46.39
73509;SHT30;61750;55.036;73.312;2023-04-25T00:40:33;4.03;45.76
73509;SHT30;61750;55.036;73.312;2023-04-25T00:42:59;4.00;46.31
73509;SHT30;61750;55.036;73.312;2023-04-25T00:45:33;4.07;46.47
73509;SHT30;61750;55.036;73.312;2023-04-25T00:48:02;4.11;46.65
73509;SHT30;61750;55.036;73.312;2023-04-25T00:50:33;4.17;45.58
73509;SHT30;61750;55.036;73.312;2023-04-25T00:53:00;4.24;45.80
73509;SHT30;61750;55.036;73.312;2023-04-25T00:55:33;4.25;46.06
73509;SHT30;61750;55.036;73.312;2023-04-25T00:58:01;4.27;46.37
73509;SHT30;61750;55.036;73.312;2023-04-25T01:00:28;4.28;46.20
73509;SHT30;61750;55.036;73.312;2023-04-25T01:02:59;4.32;45.27
73509;SHT30;61750;55.036;73.312;2023-04-25T01:05:33;4.37;44.99
73509;SHT30;61750;55.036;73.312;2023-04-25T01:08:00;4.42;45.49
73509;SHT30;61750;55.036;73.312;2023-04-25T01:10:33;4.51;45.34
73509;SHT30;61750;55.036;73.312;2023-04-25T01:13:10;4.61;45.51
73509;SHT30;61750;55.036;73.312;2023-04-25T01:15:36;4.64;44.58
73509;SHT30;61750;55.036;73.312;2023-04-25T01:18:03;4.65;44.17
73509;SHT30;61750;55.036;73.312;2023-04-25T01:20:33;4.76;44.70
73509;SHT30;61750;55.036;73.312;2023-04-25T01:23:10;4.85;44.48
73509;SHT30;61750;55.036;73.312;2023-04-25T01:25:46;4.92;44.01
73509;SHT30;61750;55.036;73.312;2023-04-25T01:28:12;4.96;43.52
73509;SHT30;61750;55.036;73.312;2023-04-25T01:30:39;4.97;43.84
73509;SHT30;61750;55.036;73.312;2023-04-25T01:33:05;5.01;43.58
73509;SHT30;61750;55.036;73.312;2023-04-25T01:35:33;5.06;43.95
73509;SHT30;61750;55.036;73.312;2023-04-25T01:37:59;5.23;43.66
73509;SHT30;61750;55.036;73.312;2023-04-25T01:40:33;5.34;43.37
73509;SHT30;61750;55.036;73.312;2023-04-25T01:43:00;5.47;43.18
73509;SHT30;61750;55.036;73.312;2023-04-25T01:45:33;5.51;43.31
73509;SHT30;61750;55.036;73.312;2023-04-25T01:48:02;5.74;43.46
73509;SHT30;61750;55.036;73.312;2023-04-25T01:50:33;5.78;42.51
73509;SHT30;61750;55.036;73.312;2023-04-25T01:53:05;5.90;43.65
73509;SHT30;61750;55.036;73.312;2023-04-25T01:55:33;5.85;43.30
73509;SHT30;61750;55.036;73.312;2023-04-25T01:58:04;5.85;43.33
73509;SHT30;61750;55.036;73.312;2023-04-25T02:01:03;5.97;43.24
73509;SHT30;61750;55.036;73.312;2023-04-25T02:03:37;5.99;43.79
73509;SHT30;61750;55.036;73.312;2023-04-25T02:06:06;5.99;43.50
73509;SHT30;61750;55.036;73.312;2023-04-25T02:08:46;6.14;43.63
73509;SHT30;61750;55.036;73.312;2023-04-25T02:11:13;6.16;43.53
73509;SHT30;61750;55.036;73.312;2023-04-25T02:14:03;6.26;44.01
73509;SHT30;61750;55.036;73.312;2023-04-25T02:16:43;6.43;43.31
73509;SHT30;61750;55.036;73.312;2023-04-25T02:19:15;6.45;43.06
73509;SHT30;61750;55.036;73.312;2023-04-25T02:21:42;6.43;43.52
73509;SHT30;61750;55.036;73.312;2023-04-25T02:24:10;6.43;43.40
73509;SHT30;61750;55.036;73.312;2023-04-25T02:26:36;6.53;43.04
73509;SHT30;61750;55.036;73.312;2023-04-25T02:29:07;6.72;42.93
73509;SHT30;61750;55.036;73.312;2023-04-25T02:31:43;6.77;42.83
73509;SHT30;61750;55.036;73.312;2023-04-25T02:34:09;6.96;43.22
73509;SHT30;61750;55.036;73.312;2023-04-25T02:36:41;7.15;42.69
73509;SHT30;61750;55.036;73.312;2023-04-25T02:39:12;7.27;42.82
73509;SHT30;61750;55.036;73.312;2023-04-25T02:41:49;7.55;42.68
73509;SHT30;61750;55.036;73.312;2023-04-25T02:44:15;7.67;41.99
73509;SHT30;61750;55.036;73.312;2023-04-25T02:46:44;7.67;41.39
73509;SHT30;61750;55.036;73.312;2023-04-25T02:49:10;7.81;40.51
73509;SHT30;61750;55.036;73.312;2023-04-25T02:51:36;7.89;41.01
73509;SHT30;61750;55.036;73.312;2023-04-25T02:54:02;8.06;40.87
73509;SHT30;61750;55.036;73.312;2023-04-25T02:56:37;8.12;40.33
73509;SHT30;61750;55.036;73.312;2023-04-25T02:59:08;8.09;40.47
73509;SHT30;61750;55.036;73.312;2023-04-25T03:01:34;7.96;40.61
73509;SHT30;61750;55.036;73.312;2023-04-25T03:04:00;8.07;40.67
73509;SHT30;61750;55.036;73.312;2023-04-25T03:06:36;8.06;40.12
73509;SHT30;61750;55.036;73.312;2023-04-25T03:09:02;8.02;40.68
73509;SHT30;61750;55.036;73.312;2023-04-25T03:11:29;8.02;41.18
73509;SHT30;61750;55.036;73.312;2023-04-25T03:13:56;8.14;40.85
73509;SHT30;61750;55.036;73.312;2023-04-25T03:16:23;8.16;40.42
73509;SHT30;61750;55.036;73.312;2023-04-25T03:18:50;8.16;40.00
73509;SHT30;61750;55.036;73.312;2023-04-25T03:21:17;8.22;40.54
73509;SHT30;61750;55.036;73.312;2023-04-25T03:23:43;8.40;40.40
73509;SHT30;61750;55.036;73.312;2023-04-25T03:26:09;8.50;40.50
73509;SHT30;61750;55.036;73.312;2023-04-25T03:28:35;8.68;39.86
73509;SHT30;61750;55.036;73.312;2023-04-25T03:31:01;8.74;39.59
73509;SHT30;61750;55.036;73.312;2023-04-25T03:33:27;8.91;40.24
73509;SHT30;61750;55.036;73.312;2023-04-25T03:36:02;9.11;39.18
73509;SHT30;61750;55.036;73.312;2023-04-25T03:38:34;9.03;38.98
73509;SHT30;61750;55.036;73.312;2023-04-25T03:41:01;9.22;38.86
73509;SHT30;61750;55.036;73.312;2023-04-25T03:43:49;9.36;38.81
73509;SHT30;61750;55.036;73.312;2023-04-25T03:46:16;9.59;38.35
73509;SHT30;61750;55.036;73.312;2023-04-25T03:48:52;9.86;39.00
73509;SHT30;61750;55.036;73.312;2023-04-25T03:51:30;9.97;37.92
73509;SHT30;61750;55.036;73.312;2023-04-25T03:53:56;9.90;37.84
73509;SHT30;61750;55.036;73.312;2023-04-25T03:56:36;9.82;38.05
73509;SHT30;61750;55.036;73.312;2023-04-25T03:59:13;9.86;37.18
73509;SHT30;61750;55.036;73.312;2023-04-25T04:01:44;9.76;37.32
73509;SHT30;61750;55.036;73.312;2023-04-25T04:04:12;9.93;37.69
73509;SHT30;61750;55.036;73.312;2023-04-25T04:06:38;10.24;37.19
73509;SHT30;61750;55.036;73.312;2023-04-25T04:09:12;10.34;38.19
73509;SHT30;61750;55.036;73.312;2023-04-25T04:11:41;10.47;37.38
73509;SHT30;61750;55.036;73.312;2023-04-25T04:14:07;10.75;37.29
73509;SHT30;61750;55.036;73.312;2023-04-25T04:16:40;10.95;35.82
73509;SHT30;61750;55.036;73.312;2023-04-25T04:19:06;11.14;35.43
73509;SHT30;61750;55.036;73.312;2023-04-25T04:21:33;11.11;35.05
73509;SHT30;61750;55.036;73.312;2023-04-25T04:24:02;11.25;35.32
73509;SHT30;61750;55.036;73.312;2023-04-25T04:26:35;11.22;35.36
73509;SHT30;61750;55.036;73.312;2023-04-25T04:29:21;11.19;35.27
73509;SHT30;61750;55.036;73.312;2023-04-25T04:31:57;11.36;35.82
73509;SHT30;61750;55.036;73.312;2023-04-25T04:34:24;11.82;35.25
73509;SHT30;61750;55.036;73.312;2023-04-25T04:36:51;11.91;34.48
73509;SHT30;61750;55.036;73.312;2023-04-25T04:39:18;12.17;34.45
73509;SHT30;61750;55.036;73.312;2023-04-25T04:41:59;12.47;34.01
73509;SHT30;61750;55.036;73.312;2023-04-25T04:44:38;12.59;34.23
73509;SHT30;61750;55.036;73.312;2023-04-25T04:47:33;12.74;33.49
73509;SHT30;61750;55.036;73.312;2023-04-25T04:50:35;12.99;33.19
73509;SHT30;61750;55.036;73.312;2023-04-25T04:53:20;13.11;33.08
73509;SHT30;61750;55.036;73.312;2023-04-25T04:56:14;13.42;33.62
73509;SHT30;61750;55.036;73.312;2023-04-25T04:58:49;13.70;34.39
73509;SHT30;61750;55.036;73.312;2023-04-25T05:01:45;13.88;33.11
73509;SHT30;61750;55.036;73.312;2023-04-25T05:04:15;14.01;33.66
73509;SHT30;61750;55.036;73.312;2023-04-25T05:06:46;13.84;33.45
73509;SHT30;61750;55.036;73.312;2023-04-25T05:09:42;13.71;34.18
73509;SHT30;61750;55.036;73.312;2023-04-25T05:12:31;13.69;34.70
73509;SHT30;61750;55.036;73.312;2023-04-25T05:15:33;13.76;34.66
73509;SHT30;61750;55.036;73.312;2023-04-25T05:18:26;13.86;35.01
73509;SHT30;61750;55.036;73.312;2023-04-25T05:21:31;14.04;34.88
73509;SHT30;61750;55.036;73.312;2023-04-25T05:24:24;14.20;34.81
73509;SHT30;61750;55.036;73.312;2023-04-25T05:27:19;14.59;34.56
73509;SHT30;61750;55.036;73.312;2023-04-25T05:30:17;14.81;34.66
73509;SHT30;61750;55.036;73.312;2023-04-25T05:33:02;14.92;34.96
73509;SHT30;61750;55.036;73.312;2023-04-25T05:35:33;14.75;35.56
73509;SHT30;61750;55.036;73.312;2023-04-25T05:38:00;14.71;35.41
73509;SHT30;61750;55.036;73.312;2023-04-25T05:40:48;15.12;35.82
73509;SHT30;61750;55.036;73.312;2023-04-25T05:43:37;15.27;36.38
73509;SHT30;61750;55.036;73.312;2023-04-25T05:46:42;15.37;36.14
73509;SHT30;61750;55.036;73.312;2023-04-25T05:49:12;15.42;36.14
73509;SHT30;61750;55.036;73.312;2023-04-25T05:52:07;15.27;36.94
73509;SHT30;61750;55.036;73.312;2023-04-25T05:54:41;15.53;36.74
73509;SHT30;61750;55.036;73.312;2023-04-25T05:57:25;15.77;36.73
73509;SHT30;61750;55.036;73.312;2023-04-25T05:59:53;15.60;37.20
73509;SHT30;61750;55.036;73.312;2023-04-25T06:02:20;16.01;36.85
73509;SHT30;61750;55.036;73.312;2023-04-25T06:04:50;16.48;36.60
73509;SHT30;61750;55.036;73.312;2023-04-25T06:07:16;16.21;36.95
73509;SHT30;61750;55.036;73.312;2023-04-25T06:09:43;15.76;37.68
73509;SHT30;61750;55.036;73.312;2023-04-25T06:12:09;15.61;38.16
73509;SHT30;61750;55.036;73.312;2023-04-25T06:14:35;15.51;38.28
73509;SHT30;61750;55.036;73.312;2023-04-25T06:17:02;15.44;38.83
73509;SHT30;61750;55.036;73.312;2023-04-25T06:19:32;15.77;38.80
73509;SHT30;61750;55.036;73.312;2023-04-25T06:21:58;15.96;38.50
73509;SHT30;61750;55.036;73.312;2023-04-25T06:24:26;16.31;38.14
73509;SHT30;61750;55.036;73.312;2023-04-25T06:26:52;16.75;38.23
73509;SHT30;61750;55.036;73.312;2023-04-25T06:29:18;16.72;37.87
73509;SHT30;61750;55.036;73.312;2023-04-25T06:31:45;16.48;38.45
73509;SHT30;61750;55.036;73.312;2023-04-25T06:34:17;16.80;38.04
73509;SHT30;61750;55.036;73.312;2023-04-25T06:36:43;16.85;38.16
73509;SHT30;61750;55.036;73.312;2023-04-25T06:39:13;16.90;37.72
73509;SHT30;61750;55.036;73.312;2023-04-25T06:41:39;16.72;38.62
73509;SHT30;61750;55.036;73.312;2023-04-25T06:44:13;16.86;38.99
73509;SHT30;61750;55.036;73.312;2023-04-25T06:46:49;16.65;38.89
73509;SHT30;61750;55.036;73.312;2023-04-25T06:49:15;16.66;38.72
73509;SHT30;61750;55.036;73.312;2023-04-25T06:51:51;17.02;38.89
73509;SHT30;61750;55.036;73.312;2023-04-25T06:54:17;16.89;38.94
73509;SHT30;61750;55.036;73.312;2023-04-25T06:56:59;17.07;39.05
73509;SHT30;61750;55.036;73.312;2023-04-25T06:59:27;17.20;39.22
73509;SHT30;61750;55.036;73.312;2023-04-25T07:01:53;17.43;39.21
73509;SHT30;61750;55.036;73.312;2023-04-25T07:04:24;17.47;39.16
73509;SHT30;61750;55.036;73.312;2023-04-25T07:06:54;17.78;39.48
73509;SHT30;61750;55.036;73.312;2023-04-25T07:09:27;17.87;39.08
73509;SHT30;61750;55.036;73.312;2023-04-25T07:11:54;17.87;39.04
73509;SHT30;61750;55.036;73.312;2023-04-25T07:14:20;17.91;38.99
73509;SHT30;61750;55.036;73.312;2023-04-25T07:16:47;18.04;38.80
73509;SHT30;61750;55.036;73.312;2023-04-25T07:19:13;17.88;39.26
73509;SHT30;61750;55.036;73.312;2023-04-25T07:21:39;17.87;39.48
73509;SHT30;61750;55.036;73.312;2023-04-25T07:24:06;18.38;38.76
73509;SHT30;61750;55.036;73.312;2023-04-25T07:26:35;18.43;38.48
73509;SHT30;61750;55.036;73.312;2023-04-25T07:29:32;18.21;38.78
73509;SHT30;61750;55.036;73.312;2023-04-25T07:32:00;17.98;39.45
73509;SHT30;61750;55.036;73.312;2023-04-25T07:34:26;18.31;39.08
73509;SHT30;61750;55.036;73.312;2023-04-25T07:36:52;18.21;38.87
73509;SHT30;61750;55.036;73.312;2023-04-25T07:39:21;18.33;39.17
73509;SHT30;61750;55.036;73.312;2023-04-25T07:41:52;18.45;39.35
73509;SHT30;61750;55.036;73.312;2023-04-25T07:44:24;18.60;38.73
73509;SHT30;61750;55.036;73.312;2023-04-25T07:46:50;18.52;38.62
73509;SHT30;61750;55.036;73.312;2023-04-25T07:49:16;18.86;38.10
73509;SHT30;61750;55.036;73.312;2023-04-25T07:51:53;19.16;38.20
73509;SHT30;61750;55.036;73.312;2023-04-25T07:54:20;19.23;37.55
73509;SHT30;61750;55.036;73.312;2023-04-25T07:56:52;19.14;37.66
73509;SHT30;61750;55.036;73.312;2023-04-25T07:59:18;19.16;38.00
73509;SHT30;61750;55.036;73.312;2023-04-25T08:01:44;19.28;37.82
73509;SHT30;61750;55.036;73.312;2023-04-25T08:04:11;19.35;37.72
73509;SHT30;61750;55.036;73.312;2023-04-25T08:06:52;19.47;37.86
73509;SHT30;61750;55.036;73.312;2023-04-25T08:09:33;19.11;37.87
73509;SHT30;61750;55.036;73.312;2023-04-25T08:12:03;18.97;38.24
73509;SHT30;61750;55.036;73.312;2023-04-25T08:14:31;18.85;38.03
73509;SHT30;61750;55.036;73.312;2023-04-25T08:17:03;18.69;38.78
73509;SHT30;61750;55.036;73.312;2023-04-25T08:19:34;19.08;38.11
73509;SHT30;61750;55.036;73.312;2023-04-25T08:22:01;19.23;37.94
73509;SHT30;61750;55.036;73.312;2023-04-25T08:24:36;19.31;37.71
73509;SHT30;61750;55.036;73.312;2023-04-25T08:27:08;19.37;37.55
73509;SHT30;61750;55.036;73.312;2023-04-25T08:29:34;19.77;37.14
73509;SHT30;61750;55.036;73.312;2023-04-25T08:32:01;20.35;36.25
73509;SHT30;61750;55.036;73.312;2023-04-25T08:34:28;20.39;36.36
73509;SHT30;61750;55.036;73.312;2023-04-25T08:36:55;20.77;35.60
73509;SHT30;61750;55.036;73.312;2023-04-25T08:39:54;21.27;35.38
73509;SHT30;61750;55.036;73.312;2023-04-25T08:42:45;21.69;34.36
73509;SHT30;61750;55.036;73.312;2023-04-25T08:45:33;22.12;33.90
73509;SHT30;61750;55.036;73.312;2023-04-25T08:48:00;21.55;35.13
73509;SHT30;61750;55.036;73.312;2023-04-25T08:50:34;22.04;33.93
73509;SHT30;61750;55.036;73.312;2023-04-25T08:53:01;22.56;33.67
73509;SHT30;61750;55.036;73.312;2023-04-25T08:55:37;22.69;32.88
73509;SHT30;61750;55.036;73.312;2023-04-25T08:58:05;23.01;32.93
73509;SHT30;61750;55.036;73.312;2023-04-25T09:00:31;23.76;32.57
73509;SHT30;61750;55.036;73.312;2023-04-25T09:02:58;23.95;31.63
73509;SHT30;61750;55.036;73.312;2023-04-25T09:05:33;24.26;31.13
73509;SHT30;61750;55.036;73.312;2023-04-25T09:08:00;24.02;31.11
73509;SHT30;61750;55.036;73.312;2023-04-25T09:10:33;22.99;32.29
73509;SHT30;61750;55.036;73.312;2023-04-25T09:13:03;21.96;33.45
73509;SHT30;61750;55.036;73.312;2023-04-25T09:15:34;22.20;33.58
73509;SHT30;61750;55.036;73.312;2023-04-25T09:18:22;22.60;32.81
73509;SHT30;61750;55.036;73.312;2023-04-25T09:20:49;23.35;32.22
73509;SHT30;61750;55.036;73.312;2023-04-25T09:23:19;22.36;32.78
73509;SHT30;61750;55.036;73.312;2023-04-25T09:25:52;22.70;33.10
73509;SHT30;61750;55.036;73.312;2023-04-25T09:28:23;22.93;31.99
73509;SHT30;61750;55.036;73.312;2023-04-25T09:30:49;22.36;32.74
73509;SHT30;61750;55.036;73.312;2023-04-25T09:33:32;22.79;32.47
73509;SHT30;61750;55.036;73.312;2023-04-25T09:36:07;22.16;32.80
73509;SHT30;61750;55.036;73.312;2023-04-25T09:38:49;22.23;33.13
73509;SHT30;61750;55.036;73.312;2023-04-25T09:41:25;22.67;32.40
73509;SHT30;61750;55.036;73.312;2023-04-25T09:43:57;22.26;32.75
73509;SHT30;61750;55.036;73.312;2023-04-25T09:46:32;22.01;33.22
73509;SHT30;61750;55.036;73.312;2023-04-25T09:49:09;22.96;32.21
73509;SHT30;61750;55.036;73.312;2023-04-25T09:51:55;23.28;31.75
73509;SHT30;61750;55.036;73.312;2023-04-25T09:54:26;23.08;31.48
73509;SHT30;61750;55.036;73.312;2023-04-25T09:57:15;22.01;32.50
73509;SHT30;61750;55.036;73.312;2023-04-25T09:59:49;21.48;33.43
73509;SHT30;61750;55.036;73.312;2023-04-25T10:02:20;21.01;34.12
73509;SHT30;61750;55.036;73.312;2023-04-25T10:04:49;20.87;34.37
73509;SHT30;61750;55.036;73.312;2023-04-25T10:07:24;20.65;34.94
73509;SHT30;61750;55.036;73.312;2023-04-25T10:09:58;21.34;34.17
73509;SHT30;61750;55.036;73.312;2023-04-25T10:12:26;21.48;34.06
73509;SHT30;61750;55.036;73.312;2023-04-25T10:14:52;21.58;33.95
73509;SHT30;61750;55.036;73.312;2023-04-25T10:17:23;22.80;32.83
73509;SHT30;61750;55.036;73.312;2023-04-25T10:19:50;23.48;31.50
73509;SHT30;61750;55.036;73.312;2023-04-25T10:24:52;22.67;32.46
73509;SHT30;61750;55.036;73.312;2023-04-25T10:27:19;24.01;30.93
73509;SHT30;61750;55.036;73.312;2023-04-25T10:30:15;23.81;30.51
73509;SHT30;61750;55.036;73.312;2023-04-25T10:32:41;24.02;30.57
73509;SHT30;61750;55.036;73.312;2023-04-25T10:35:35;23.20;31.71
73509;SHT30;61750;55.036;73.312;2023-04-25T10:38:11;22.67;32.08
73509;SHT30;61750;55.036;73.312;2023-04-25T10:40:40;22.10;32.47
73509;SHT30;61750;55.036;73.312;2023-04-25T10:45:59;22.42;31.85
73509;SHT30;61750;55.036;73.312;2023-04-25T10:48:29;22.74;32.17
73509;SHT30;61750;55.036;73.312;2023-04-25T10:53:35;23.66;30.68
73509;SHT30;61750;55.036;73.312;2023-04-25T10:56:11;23.00;31.12
73509;SHT30;61750;55.036;73.312;2023-04-25T10:58:47;22.15;32.14
73509;SHT30;61750;55.036;73.312;2023-04-25T11:01:13;21.81;32.90
73509;SHT30;61750;55.036;73.312;2023-04-25T11:03:40;21.78;32.64
73509;SHT30;61750;55.036;73.312;2023-04-25T11:06:15;21.15;33.45
73509;SHT30;61750;55.036;73.312;2023-04-25T11:08:52;21.92;32.85
73509;SHT30;61750;55.036;73.312;2023-04-25T11:11:28;23.21;31.31
73509;SHT30;61750;55.036;73.312;2023-04-25T11:14:05;24.10;30.01
73509;SHT30;61750;55.036;73.312;2023-04-25T11:16:33;23.54;30.74
73509;SHT30;61750;55.036;73.312;2023-04-25T11:19:02;23.10;31.23
73509;SHT30;61750;55.036;73.312;2023-04-25T11:21:28;23.28;30.87
73509;SHT30;61750;55.036;73.312;2023-04-25T11:23:57;22.70;31.13
73509;SHT30;61750;55.036;73.312;2023-04-25T11:26:24;22.19;32.04
73509;SHT30;61750;55.036;73.312;2023-04-25T11:29:03;22.37;31.65
73509;SHT30;61750;55.036;73.312;2023-04-25T11:31:29;21.86;32.14
73509;SHT30;61750;55.036;73.312;2023-04-25T11:34:06;21.32;32.62
73509;SHT30;61750;55.036;73.312;2023-04-25T11:36:32;22.15;31.58
73509;SHT30;61750;55.036;73.312;2023-04-25T11:39:01;23.34;30.36
73509;SHT30;61750;55.036;73.312;2023-04-25T11:41:27;24.20;29.28
73509;SHT30;61750;55.036;73.312;2023-04-25T11:43:53;25.35;28.40
73509;SHT30;61750;55.036;73.312;2023-04-25T11:46:19;24.57;28.95
73509;SHT30;61750;55.036;73.312;2023-04-25T11:48:48;25.32;28.15
73509;SHT30;61750;55.036;73.312;2023-04-25T11:51:26;25.48;27.99
73509;SHT30;61750;55.036;73.312;2023-04-25T11:54:03;26.56;27.20
73509;SHT30;61750;55.036;73.312;2023-04-25T11:56:29;27.11;26.97
73509;SHT30;61750;55.036;73.312;2023-04-25T12:01:34;27.68;25.81
73509;SHT30;61750;55.036;73.312;2023-04-25T12:04:14;28.49;25.36
73509;SHT30;61750;55.036;73.312;2023-04-25T12:06:41;28.40;25.31
73509;SHT30;61750;55.036;73.312;2023-04-25T12:09:08;28.70;25.05
73509;SHT30;61750;55.036;73.312;2023-04-25T12:11:45;28.77;25.53
73509;SHT30;61750;55.036;73.312;2023-04-25T12:14:12;28.73;25.07
73509;SHT30;61750;55.036;73.312;2023-04-25T12:16:46;28.41;25.12
73509;SHT30;61750;55.036;73.312;2023-04-25T12:19:23;27.56;25.78
73509;SHT30;61750;55.036;73.312;2023-04-25T12:21:57;28.26;25.05
73509;SHT30;61750;55.036;73.312;2023-04-25T12:24:33;27.79;25.23
73509;SHT30;61750;55.036;73.312;2023-04-25T12:29:31;28.46;25.01
73509;SHT30;61750;55.036;73.312;2023-04-25T12:31:58;28.65;24.67
73509;SHT30;61750;55.036;73.312;2023-04-25T12:34:24;29.14;24.52
73509;SHT30;61750;55.036;73.312;2023-04-25T12:36:50;28.86;24.57
73509;SHT30;61750;55.036;73.312;2023-04-25T12:39:23;28.80;24.51
73509;SHT30;61750;55.036;73.312;2023-04-25T12:41:54;28.64;24.74
73509;SHT30;61750;55.036;73.312;2023-04-25T12:44:20;28.43;24.80
73509;SHT30;61750;55.036;73.312;2023-04-25T12:46:56;27.95;25.17
73509;SHT30;61750;55.036;73.312;2023-04-25T12:49:22;27.34;25.49
73509;SHT30;61750;55.036;73.312;2023-04-25T12:51:48;27.37;25.58
73509;SHT30;61750;55.036;73.312;2023-04-25T12:54:15;27.11;25.82
73509;SHT30;61750;55.036;73.312;2023-04-25T12:56:41;26.53;26.28
73509;SHT30;61750;55.036;73.312;2023-04-25T12:59:07;26.81;26.13
73509;SHT30;61750;55.036;73.312;2023-04-25T13:01:43;26.84;26.46
73509;SHT30;61750;55.036;73.312;2023-04-25T13:04:12;27.30;25.84
73509;SHT30;61750;55.036;73.312;2023-04-25T13:06:38;27.72;25.34
73509;SHT30;61750;55.036;73.312;2023-04-25T13:09:04;27.35;25.59
73509;SHT30;61750;55.036;73.312;2023-04-25T13:11:30;27.65;25.50
73509;SHT30;61750;55.036;73.312;2023-04-25T13:14:01;27.58;25.47
73509;SHT30;61750;55.036;73.312;2023-04-25T13:16:38;27.48;25.63
73509;SHT30;61750;55.036;73.312;2023-04-25T13:19:04;27.70;25.46
73509;SHT30;61750;55.036;73.312;2023-04-25T13:21:31;27.45;25.84
73509;SHT30;61750;55.036;73.312;2023-04-25T13:23:58;26.95;26.08
73509;SHT30;61750;55.036;73.312;2023-04-25T13:26:24;26.60;26.38
73509;SHT30;61750;55.036;73.312;2023-04-25T13:28:50;25.34;27.33
73509;SHT30;61750;55.036;73.312;2023-04-25T13:31:16;24.66;28.20
73509;SHT30;61750;55.036;73.312;2023-04-25T13:33:42;24.02;28.72
73509;SHT30;61750;55.036;73.312;2023-04-25T13:36:09;23.78;29.03
73509;SHT30;61750;55.036;73.312;2023-04-25T13:38:35;23.90;28.98
73509;SHT30;61750;55.036;73.312;2023-04-25T13:41:01;23.84;29.08
73509;SHT30;61750;55.036;73.312;2023-04-25T13:43:27;23.78;29.11
73509;SHT30;61750;55.036;73.312;2023-04-25T13:45:58;22.76;30.15
73509;SHT30;61750;55.036;73.312;2023-04-25T13:48:24;22.02;31.15
73509;SHT30;61750;55.036;73.312;2023-04-25T13:50:50;21.57;31.72
73509;SHT30;61750;55.036;73.312;2023-04-25T13:53:16;21.15;32.15
73509;SHT30;61750;55.036;73.312;2023-04-25T13:55:42;20.62;33.12
73509;SHT30;61750;55.036;73.312;2023-04-25T13:58:08;20.15;33.60
73509;SHT30;61750;55.036;73.312;2023-04-25T14:00:36;19.79;34.04
73509;SHT30;61750;55.036;73.312;2023-04-25T14:03:04;19.47;34.47
73509;SHT30;61750;55.036;73.312;2023-04-25T14:05:33;19.23;34.94
73509;SHT30;61750;55.036;73.312;2023-04-25T14:08:04;18.95;35.29
73509;SHT30;61750;55.036;73.312;2023-04-25T14:10:34;18.69;35.71
73509;SHT30;61750;55.036;73.312;2023-04-25T14:13:00;18.39;36.17
73509;SHT30;61750;55.036;73.312;2023-04-25T14:15:33;18.21;36.39
73509;SHT30;61750;55.036;73.312;2023-04-25T14:18:05;17.95;36.75
73509;SHT30;61750;55.036;73.312;2023-04-25T14:20:33;17.74;37.19
73509;SHT30;61750;55.036;73.312;2023-04-25T14:23:00;17.51;37.48
73509;SHT30;61750;55.036;73.312;2023-04-25T14:25:33;17.24;37.95
73509;SHT30;61750;55.036;73.312;2023-04-25T14:27:59;17.00;38.44
73509;SHT30;61750;55.036;73.312;2023-04-25T14:30:25;16.76;38.88
73509;SHT30;61750;55.036;73.312;2023-04-25T14:32:52;16.58;39.33
73509;SHT30;61750;55.036;73.312;2023-04-25T14:35:33;16.39;39.62
73509;SHT30;61750;55.036;73.312;2023-04-25T14:37:59;16.24;40.01
73509;SHT30;61750;55.036;73.312;2023-04-25T14:40:33;16.00;40.44
73509;SHT30;61750;55.036;73.312;2023-04-25T14:42:59;15.71;40.95
73509;SHT30;61750;55.036;73.312;2023-04-25T14:45:33;15.32;41.54
73509;SHT30;61750;55.036;73.312;2023-04-25T14:47:59;15.09;42.06
73509;SHT30;61750;55.036;73.312;2023-04-25T14:50:33;14.98;42.39
73509;SHT30;61750;55.036;73.312;2023-04-25T14:52:59;14.92;42.78
73509;SHT30;61750;55.036;73.312;2023-04-25T14:55:33;14.68;43.26
73509;SHT30;61750;55.036;73.312;2023-04-25T14:57:59;14.49;43.68
73509;SHT30;61750;55.036;73.312;2023-04-25T15:00:25;14.29;44.02
73509;SHT30;61750;55.036;73.312;2023-04-25T15:02:52;14.08;44.49
73509;SHT30;61750;55.036;73.312;2023-04-25T15:05:36;13.91;44.96
73509;SHT30;61750;55.036;73.312;2023-04-25T15:08:07;13.90;45.09
73509;SHT30;61750;55.036;73.312;2023-04-25T15:10:43;13.78;45.41
73509;SHT30;61750;55.036;73.312;2023-04-25T15:13:09;13.71;45.65
73509;SHT30;61750;55.036;73.312;2023-04-25T15:15:36;13.77;45.61
73509;SHT30;61750;55.036;73.312;2023-04-25T15:18:02;13.66;45.79
73509;SHT30;61750;55.036;73.312;2023-04-25T15:20:33;13.49;46.20
73509;SHT30;61750;55.036;73.312;2023-04-25T15:23:00;13.42;46.44
73509;SHT30;61750;55.036;73.312;2023-04-25T15:25:33;13.38;46.54
73509;SHT30;61750;55.036;73.312;2023-04-25T15:27:59;13.27;46.81
73509;SHT30;61750;55.036;73.312;2023-04-25T15:30:25;13.38;46.64
73509;SHT30;61750;55.036;73.312;2023-04-25T15:33:01;13.35;46.76
73509;SHT30;61750;55.036;73.312;2023-04-25T15:35:33;13.32;46.93
73509;SHT30;61750;55.036;73.312;2023-04-25T15:37:59;13.35;46.73
73509;SHT30;61750;55.036;73.312;2023-04-25T15:40:33;13.35;46.70
73509;SHT30;61750;55.036;73.312;2023-04-25T15:42:59;13.42;46.60
73509;SHT30;61750;55.036;73.312;2023-04-25T15:45:33;13.46;46.48
73509;SHT30;61750;55.036;73.312;2023-04-25T15:48:36;13.62;46.14
73509;SHT30;61750;55.036;73.312;2023-04-25T15:51:02;13.67;46.02
73509;SHT30;61750;55.036;73.312;2023-04-25T15:53:28;13.63;46.04
73509;SHT30;61750;55.036;73.312;2023-04-25T15:55:54;13.70;46.11
73509;SHT30;61750;55.036;73.312;2023-04-25T15:58:30;13.80;45.83
73509;SHT30;61750;55.036;73.312;2023-04-25T16:01:01;13.87;45.77